Paxton, Florida
Current Conditions -  °F | °C
As of 3:58 PM on Friday 31 Oct 2014 (Local Time) from K0J4 Reporting Station
Broken Clouds Broken Clouds  
Wind Chill: 70°   Ceiling: 9000
Heat Index: 70°   Visibility: 10mi
Dew Point: 45°   Wind: 0mph
Humidity: 41%   Direction: NA
Pressure: 29.92"   Gusts: NA
Location:  30.98°N, 86.31°W
Report Text: K0J4 312058Z AUTO 00000KT 10SM SCT070 BKN090 21/07 A2992 RMK AO2 SLP128 T02110072 55010 $
Loading
Personal Weather Stations






























Interactive Weather Map
Tropical Storm Tracking
New forecast layout! Learn more

10-Day Weather Forecast

Advertisements
Track Severe Weather on mobile